Sign-in with your pilot id or email, or register

ICAO: WMKK Name / Country: Sepang/KL International Airport / Malaysia
Latitude: 2.74558 Longitude: 101.71
Total Arrivals:
Strict Standards: Non-static method AirportData::getarrflights() should not be called statically, assuming $this from incompatible context in /var/www/customers/vh-7192/web/home/phpvms/core/templates/airport_info.tpl on line 18
1
Total Departures:
Strict Standards: Non-static method AirportData::getdeptflights() should not be called statically, assuming $this from incompatible context in /var/www/customers/vh-7192/web/home/phpvms/core/templates/airport_info.tpl on line 21
1
Latest Arrival: MTA5TT (WBSB-WMKK) Tibor Berces Latest Departure: MTA5TT (WMKK-WADD) Tibor Berces
Metar: WMKK 221500Z 31003KT 250V340 9999 FEW030 26/24 Q1011 NOSIG
More info

Charts for WMKK


NOTAM


Warning: file_get_contents(http://api.vateud.net/notams/WMKK.json): failed to open stream: Redirection limit reached, aborting in /var/www/customers/vh-7192/web/home/phpvms/core/common/NOTAMSData.class.php on line 18

Warning: Invalid argument supplied for foreach() in /var/www/customers/vh-7192/web/home/phpvms/core/common/NOTAMSData.class.php on line 22

Sepang/KL International Airport